createdAt,value
2022-10-11T00:08:06.661Z,1.60
2022-10-11T00:18:13.309Z,2.08
2022-10-11T00:28:14.721Z,2.78
2022-10-11T00:38:19.160Z,1.52
2022-10-11T00:48:33.241Z,1.73
2022-10-11T00:58:35.054Z,1.48
2022-10-11T01:08:36.734Z,2.15
2022-10-11T01:19:13.431Z,2.17
2022-10-11T01:29:47.393Z,3.00
2022-10-11T01:39:52.266Z,2.65
2022-10-11T01:49:55.355Z,3.22
2022-10-11T02:00:15.947Z,2.17
2022-10-11T02:10:28.886Z,3.53
2022-10-11T02:20:30.428Z,3.05
2022-10-11T02:30:31.816Z,1.73
2022-10-11T02:40:33.975Z,1.90
2022-10-11T02:50:35.419Z,1.88
2022-10-11T03:00:36.793Z,1.65
2022-10-11T03:10:38.404Z,2.17
2022-10-11T03:20:39.819Z,1.70
2022-10-11T03:30:41.246Z,2.33
2022-10-11T03:40:51.869Z,3.35
2022-10-11T03:50:53.369Z,3.38
2022-10-11T04:00:54.809Z,3.47
2022-10-11T04:10:56.411Z,2.95
2022-10-11T04:20:57.846Z,3.58
2022-10-11T04:30:59.854Z,2.55
2022-10-11T04:41:10.707Z,2.33
2022-10-11T04:51:13.560Z,3.05
2022-10-11T05:01:15.545Z,2.35
2022-10-11T05:11:17.154Z,2.97
2022-10-11T05:21:25.847Z,3.05
2022-10-11T05:31:27.260Z,2.73
2022-10-11T05:41:29.237Z,3.22
2022-10-11T05:51:30.650Z,4.40
2022-10-11T06:01:32.137Z,4.13
2022-10-11T06:11:34.113Z,3.30
2022-10-11T06:21:35.554Z,2.70
2022-10-11T06:31:36.926Z,3.63
2022-10-11T06:41:38.344Z,4.00
2022-10-11T06:51:39.794Z,3.15
2022-10-11T07:01:41.676Z,3.63
2022-10-11T07:11:43.110Z,3.70
2022-10-11T07:21:52.354Z,4.57
2022-10-11T07:31:57.126Z,4.90
2022-10-11T07:41:58.635Z,6.18
2022-10-11T07:52:00.120Z,4.93
2022-10-11T08:02:04.650Z,8.18
2022-10-11T08:12:06.235Z,5.75
2022-10-11T08:22:09.187Z,8.50
2022-10-11T08:32:13.640Z,8.77
2022-10-11T08:42:43.386Z,9.88
2022-10-11T08:52:47.883Z,12.13
2022-10-11T09:03:09.234Z,11.00
2022-10-11T09:13:30.894Z,10.70
2022-10-11T09:23:54.739Z,10.57
2022-10-11T09:33:56.215Z,8.07
2022-10-11T09:43:57.657Z,8.48
2022-10-11T09:54:04.812Z,7.63
2022-10-11T10:04:07.878Z,7.25
2022-10-11T10:14:18.108Z,6.72
2022-10-11T10:24:20.853Z,6.47
2022-10-11T10:34:33.774Z,6.78
2022-10-11T10:44:35.159Z,7.38
2022-10-11T10:54:52.293Z,7.13
2022-10-11T11:05:03.709Z,6.75
2022-10-11T11:15:20.097Z,6.22
2022-10-11T11:25:45.087Z,6.45
2022-10-11T11:35:49.613Z,6.05
2022-10-11T11:45:57.030Z,6.50
2022-10-11T11:56:09.236Z,6.43
2022-10-11T12:06:13.747Z,4.30
2022-10-11T12:16:18.182Z,2.53
2022-10-11T12:26:28.667Z,2.03
2022-10-11T12:36:54.298Z,2.35
2022-10-11T12:46:55.661Z,2.50
2022-10-11T12:57:12.521Z,1.98
2022-10-11T13:07:14.701Z,2.42
2022-10-11T13:17:25.942Z,1.55
2022-10-11T13:27:27.411Z,2.25
2022-10-11T13:37:29.139Z,2.15
2022-10-11T13:47:30.653Z,3.10
2022-10-11T13:57:43.351Z,2.95
2022-10-11T14:07:44.724Z,2.50
2022-10-11T14:17:46.224Z,2.90
2022-10-11T14:27:47.673Z,2.80
2022-10-11T14:37:49.218Z,2.10
2022-10-11T14:47:53.505Z,2.80
2022-10-11T14:57:56.196Z,2.85
2022-10-11T15:07:57.667Z,3.13
2022-10-11T15:17:59.550Z,2.92
2022-10-11T15:28:01.261Z,3.80
2022-10-11T15:38:02.657Z,4.18
2022-10-11T15:48:04.225Z,3.83
2022-10-11T15:58:08.640Z,3.22
2022-10-11T16:08:11.520Z,5.18
2022-10-11T16:18:14.727Z,3.65
2022-10-11T16:28:23.441Z,3.65
2022-10-11T16:48:26.375Z,3.45
2022-10-11T16:58:27.871Z,3.88
2022-10-11T17:08:29.249Z,10.60
2022-10-11T17:18:31.813Z,7.03
2022-10-11T17:28:33.963Z,4.20
2022-10-11T17:38:35.373Z,4.05
2022-10-11T17:48:37.044Z,4.05
2022-10-11T17:58:40.553Z,5.22
2022-10-11T18:08:42.193Z,4.13
2022-10-11T18:18:43.606Z,4.22
2022-10-11T18:28:48.139Z,4.35
2022-10-11T18:38:52.754Z,3.00
2022-10-11T18:48:56.713Z,2.50
2022-10-11T18:58:58.772Z,3.10
2022-10-11T19:09:02.201Z,2.60
2022-10-11T19:19:06.111Z,2.35
2022-10-11T19:29:09.241Z,2.20
2022-10-11T19:39:16.317Z,2.83
2022-10-11T19:49:27.416Z,2.97
2022-10-11T19:59:29.268Z,1.52
2022-10-11T20:09:33.001Z,2.10
2022-10-11T20:19:39.538Z,2.08
2022-10-11T20:29:40.910Z,1.92
2022-10-11T20:39:42.305Z,2.08
2022-10-11T20:49:45.890Z,1.73
2022-10-11T20:59:47.775Z,1.92
2022-10-11T21:09:49.283Z,1.60
2022-10-11T21:19:53.682Z,1.95
2022-10-11T21:29:55.182Z,2.20
2022-10-11T21:39:56.629Z,1.40
2022-10-11T21:49:58.038Z,2.15
2022-10-11T21:59:59.415Z,2.10
2022-10-11T22:10:02.873Z,2.05
2022-10-11T22:20:06.746Z,1.85
2022-10-11T22:30:17.733Z,1.60
2022-10-11T22:40:19.553Z,1.95
2022-10-11T22:50:20.968Z,1.27
2022-10-11T23:00:22.506Z,1.85
2022-10-11T23:10:23.920Z,2.55
2022-10-11T23:20:25.290Z,1.75
2022-10-11T23:30:27.427Z,1.98
2022-10-11T23:40:28.809Z,2.20
2022-10-11T23:50:30.169Z,2.05
